Time;durP1;ratioP1;P1;durP2;ratioP2;P2;SDS_P1;SDS_P2;PMS_P1;PMS_P2;Temp;Humidity;BMP_temperature;BMP_pressure;BME280_temperature;BME280_humidity;BME280_pressure;Samples;Min_cycle;Max_cycle;Signal;HPM_P1;HPM_P2
2022/08/27 00:02:08;;;;;;;;;;;;;;;18.72;61.62;95846.19;10324848;28;98055;-66
2022/08/27 00:07:12;;;;;;;4.35;3.95;;;;;;;18.82;62.20;95849.19;10328380;28;99027;-67
2022/08/27 00:12:16;;;;;;;6.00;4.07;;;;;;;18.88;61.55;95840.47;10333117;28;96924;-66
2022/08/27 00:17:19;;;;;;;4.70;3.50;;;;;;;18.93;61.39;95845.13;10334175;28;98474;-66
2022/08/27 00:22:22;;;;;;;5.18;3.00;;;;;;;18.99;60.85;95844.28;10326178;28;98545;-66
2022/08/27 00:27:26;;;;;;;3.50;3.15;;;;;;;19.06;60.93;95849.56;10336439;28;98425;-66
2022/08/27 00:32:29;;;;;;;3.97;3.03;;;;;;;19.18;60.24;95853.16;10327400;28;96830;-66
2022/08/27 00:37:32;;;;;;;5.43;3.00;;;;;;;19.31;60.10;95841.69;10330090;28;97842;-66
2022/08/27 00:42:37;;;;;;;3.55;3.05;;;;;;;19.49;58.89;95835.69;10333277;28;98786;-66
2022/08/27 00:47:44;;;;;;;3.17;2.70;;;;;;;19.67;58.75;95834.94;10336240;28;96850;-69
2022/08/27 00:52:52;;;;;;;4.07;3.00;;;;;;;19.82;58.86;95842.63;10334630;28;96891;-66
2022/08/27 00:58:02;;;;;;;3.58;3.28;;;;;;;19.93;58.61;95844.56;10332024;28;99167;-68
2022/08/27 01:03:07;;;;;;;3.83;3.20;;;;;;;19.95;58.66;95837.19;10330279;28;99255;-66
2022/08/27 01:08:14;;;;;;;3.97;3.05;;;;;;;19.98;58.75;95842.06;10332901;28;97074;-66
2022/08/27 01:13:21;;;;;;;3.80;3.17;;;;;;;20.09;58.09;95840.56;10324619;28;98878;-66
2022/08/27 01:18:44;;;;;;;3.15;2.85;;;;;;;20.21;58.28;95839.84;10326358;28;98848;-67
2022/08/27 01:23:54;;;;;;;3.45;3.00;;;;;;;20.22;58.37;95834.34;10331454;28;98420;-66
2022/08/27 01:28:58;;;;;;;3.97;2.72;;;;;;;20.20;57.97;95836.41;10331958;28;97965;-64
2022/08/27 01:34:05;;;;;;;5.05;3.25;;;;;;;20.24;58.17;95832.28;10333915;28;98477;-65
2022/08/27 01:39:08;;;;;;;3.53;3.22;;;;;;;20.17;57.89;95828.88;10331728;28;97727;-65
2022/08/27 01:44:16;;;;;;;4.95;3.22;;;;;;;20.11;58.88;95824.44;10331123;28;98536;-66
2022/08/27 01:49:22;;;;;;;5.38;4.05;;;;;;;20.11;58.16;95824.44;10328835;28;98764;-65
2022/08/27 01:54:25;;;;;;;4.10;3.42;;;;;;;20.14;58.48;95818.69;10333009;28;97553;-65
2022/08/27 01:59:30;;;;;;;4.43;3.38;;;;;;;20.13;58.30;95822.38;10330818;28;96890;-66
2022/08/27 02:04:41;;;;;;;4.60;3.50;;;;;;;20.08;58.33;95809.78;10322155;28;98134;-66
2022/08/27 02:09:44;;;;;;;4.80;3.47;;;;;;;19.98;58.72;95820.88;10337302;28;98767;-65
2022/08/27 02:14:48;;;;;;;4.72;3.63;;;;;;;19.89;59.19;95802.81;10337931;28;98444;-66
2022/08/27 02:19:52;;;;;;;5.72;4.10;;;;;;;19.73;59.31;95802.31;10338410;28;98104;-66
2022/08/27 02:24:55;;;;;;;4.03;3.72;;;;;;;19.47;59.87;95797.19;10326832;28;98268;-66
2022/08/27 02:29:59;;;;;;;4.07;3.55;;;;;;;19.29;60.38;95789.97;10324752;28;97719;-67
2022/08/27 02:35:03;;;;;;;5.65;3.78;;;;;;;19.17;60.58;95805.72;10334134;28;99274;-65
2022/08/27 02:40:08;;;;;;;4.43;3.13;;;;;;;19.03;60.18;95802.31;10337209;28;97640;-65
2022/08/27 02:45:14;;;;;;;3.50;3.13;;;;;;;18.87;59.33;95799.13;10331123;28;98635;-66
2022/08/27 02:50:17;;;;;;;4.05;3.67;;;;;;;18.78;60.44;95795.09;10338475;28;97151;-66
2022/08/27 02:55:21;;;;;;;4.45;3.75;;;;;;;18.72;61.53;95790.63;10334756;28;97931;-66
2022/08/27 03:00:27;;;;;;;5.30;4.00;;;;;;;18.61;61.67;95783.34;10328917;28;96818;-66
2022/08/27 03:05:30;;;;;;;5.05;4.15;;;;;;;18.53;62.31;95788.88;10325438;28;98705;-66
2022/08/27 03:10:33;;;;;;;5.72;4.18;;;;;;;18.45;62.99;95788.06;10328336;28;98372;-66
2022/08/27 03:15:38;;;;;;;4.53;3.65;;;;;;;18.31;62.88;95789.13;10327209;28;97086;-66
2022/08/27 03:20:43;;;;;;;4.65;3.90;;;;;;;18.19;62.92;95780.22;10323718;28;97013;-66
2022/08/27 03:25:50;;;;;;;6.50;4.18;;;;;;;18.03;63.08;95784.09;10328337;28;98649;-66
2022/08/27 03:30:59;;;;;;;4.43;4.03;;;;;;;17.83;63.84;95776.97;10333132;28;99036;-66
2022/08/27 03:36:02;;;;;;;4.57;4.15;;;;;;;17.72;64.07;95778.41;10326511;28;97445;-66
2022/08/27 03:41:05;;;;;;;5.20;4.47;;;;;;;17.59;64.98;95775.75;10338129;28;99009;-66
2022/08/27 03:46:10;;;;;;;4.90;4.43;;;;;;;17.49;65.37;95776.19;10326374;28;98469;-66
2022/08/27 03:51:14;;;;;;;;;;;;;;;17.30;64.96;95771.66;10324620;28;99159;-69
2022/08/27 03:56:17;;;;;;;6.32;4.53;;;;;;;17.26;65.49;95765.97;10318281;28;96934;-68
2022/08/27 04:01:21;;;;;;;5.20;4.70;;;;;;;17.28;65.89;95761.31;10333034;28;97217;-66
2022/08/27 04:06:24;;;;;;;5.82;4.97;;;;;;;17.26;66.16;95765.16;10323594;28;96824;-65
2022/08/27 04:11:28;;;;;;;6.75;4.78;;;;;;;17.12;66.31;95769.63;10335364;28;97497;-65
2022/08/27 04:16:32;;;;;;;6.03;5.00;;;;;;;16.96;67.06;95768.97;10348278;28;98827;-65
2022/08/27 04:21:36;;;;;;;5.63;4.80;;;;;;;16.92;67.26;95780.09;10335407;28;97265;-67
2022/08/27 04:26:39;;;;;;;6.72;5.50;;;;;;;16.93;66.76;95766.72;10341701;28;99405;-68
2022/08/27 04:31:44;;;;;;;6.40;5.25;;;;;;;16.86;66.94;95760.63;10332127;28;98512;-65
2022/08/27 04:36:47;;;;;;;5.47;4.45;;;;;;;16.82;67.16;95767.31;10332455;28;98864;-66
2022/08/27 04:41:50;;;;;;;5.63;4.65;;;;;;;16.70;67.31;95767.03;10346629;28;98439;-65
2022/08/27 04:46:57;;;;;;;5.00;4.50;;;;;;;16.61;67.35;95774.31;10326270;28;97494;-66
2022/08/27 04:52:00;;;;;;;5.75;4.78;;;;;;;16.56;67.50;95779.34;10332266;28;97717;-66
2022/08/27 04:57:05;;;;;;;6.47;4.93;;;;;;;16.53;67.88;95778.94;10333449;28;98511;-65
2022/08/27 05:02:09;;;;;;;4.93;4.53;;;;;;;16.52;67.63;95778.13;10329746;28;97137;-69
2022/08/27 05:07:12;;;;;;;5.03;4.50;;;;;;;16.49;67.63;95778.50;10328714;28;96814;-67
2022/08/27 05:12:15;;;;;;;6.75;5.00;;;;;;;16.53;67.62;95779.75;10327435;28;99168;-66
2022/08/27 05:17:20;;;;;;;5.65;4.88;;;;;;;16.59;67.46;95780.81;10328241;28;98537;-66
2022/08/27 05:22:23;;;;;;;7.30;4.40;;;;;;;16.58;66.64;95779.97;10332276;28;98447;-65
2022/08/27 05:27:26;;;;;;;4.70;4.25;;;;;;;16.67;66.69;95785.88;10333116;28;98583;-65
2022/08/27 05:32:31;;;;;;;6.15;4.50;;;;;;;16.70;67.20;95787.34;10328666;28;96844;-66
2022/08/27 05:37:33;;;;;;;;;;;;;;;16.79;66.64;95788.81;10347226;28;99102;-66
2022/08/27 05:42:36;;;;;;;5.30;4.05;;;;;;;16.84;65.92;95789.03;10338083;28;97692;-68
2022/08/27 05:47:40;;;;;;;4.95;3.95;;;;;;;16.94;66.13;95797.38;10338837;28;97629;-65
2022/08/27 05:52:46;;;;;;;4.60;4.20;;;;;;;17.08;66.47;95790.31;10323942;28;97799;-65
2022/08/27 05:57:50;;;;;;;5.03;4.50;;;;;;;17.35;66.61;95795.63;10324696;28;99196;-66
2022/08/27 06:02:54;;;;;;;4.80;4.40;;;;;;;17.60;66.78;95787.97;10328364;28;97947;-66
2022/08/27 06:07:57;;;;;;;5.47;4.30;;;;;;;17.94;66.33;95794.06;10332789;28;98550;-69
2022/08/27 06:12:59;;;;;;;6.38;4.43;;;;;;;18.27;66.01;95790.56;10331694;28;96860;-65
2022/08/27 06:18:04;;;;;;;5.75;4.78;;;;;;;18.52;65.67;95784.63;10330801;28;97770;-66
2022/08/27 06:23:07;;;;;;;7.45;5.35;;;;;;;18.70;65.33;95784.72;10330356;28;98667;-66
2022/08/27 06:28:10;;;;;;;5.43;4.93;;;;;;;18.85;65.00;95779.97;10329412;28;98639;-66
2022/08/27 06:33:15;;;;;;;5.70;4.63;;;;;;;18.95;65.51;95784.03;10326670;28;98380;-66
2022/08/27 06:38:18;;;;;;;;;;;;;;;19.08;65.34;95793.75;10326657;28;98778;-66
2022/08/27 06:43:21;;;;;;;6.03;4.60;;;;;;;19.12;65.29;95793.09;10323853;28;98778;-66
2022/08/27 06:48:28;;;;;;;5.90;5.38;;;;;;;19.14;65.56;95783.13;10324923;28;97898;-66
2022/08/27 06:53:35;;;;;;;5.85;5.20;;;;;;;19.21;65.70;95788.38;10321955;28;96827;-66
2022/08/27 06:58:38;;;;;;;6.07;5.47;;;;;;;19.33;65.47;95785.84;10326283;28;98628;-66
2022/08/27 07:03:42;;;;;;;6.15;5.55;;;;;;;19.42;65.42;95779.28;10321949;28;99437;-66
2022/08/27 07:08:45;;;;;;;5.30;4.80;;;;;;;19.49;65.71;95769.47;10325515;28;97802;-68
2022/08/27 07:13:56;;;;;;;7.00;5.00;;;;;;;19.59;65.79;95775.09;10325924;28;97477;-66
2022/08/27 07:19:01;;;;;;;5.40;4.80;;;;;;;19.72;66.00;95778.66;10323989;28;97609;-66
2022/08/27 07:24:07;;;;;;;6.50;5.88;;;;;;;19.86;65.73;95777.53;10332994;28;97948;-66
2022/08/27 07:29:13;;;;;;;6.38;5.72;;;;;;;19.96;65.67;95772.56;10328685;28;97765;-67
2022/08/27 07:34:17;;;;;;;5.38;4.88;;;;;;;20.27;65.08;95791.22;10330946;28;98548;-66
2022/08/27 07:39:20;;;;;;;6.20;4.65;;;;;;;20.58;64.47;95790.28;10334608;28;96861;-66
2022/08/27 07:44:26;;;;;;;5.40;4.90;;;;;;;20.93;63.10;95790.50;10327771;28;97237;-68
2022/08/27 07:49:36;;;;;;;4.97;4.47;;;;;;;21.29;62.05;95782.69;10323213;28;98884;-66
2022/08/27 07:54:40;;;;;;;4.57;4.18;;;;;;;21.41;61.54;95791.50;10339589;28;96920;-67
2022/08/27 07:59:43;;;;;;;4.30;3.90;;;;;;;21.64;61.17;95795.25;10333925;28;99259;-66
2022/08/27 08:04:47;;;;;;;3.83;3.42;;;;;;;22.08;59.72;95795.78;10332838;28;98364;-66
2022/08/27 08:09:49;;;;;;;;;;;;;;;22.25;59.91;95802.03;10337620;28;97177;-66
2022/08/27 08:14:56;;;;;;;5.40;3.72;;;;;;;22.33;59.72;95803.53;10338445;28;96743;-66
2022/08/27 08:20:00;;;;;;;4.72;3.50;;;;;;;22.43;59.08;95794.97;10335616;28;96737;-66
2022/08/27 08:25:23;;;;;;;5.78;3.78;;;;;;;22.58;57.89;95805.97;10343248;28;98537;-65
2022/08/27 08:30:28;;;;;;;4.13;3.72;;;;;;;22.67;57.44;95797.63;10339356;28;99089;-65
2022/08/27 08:35:39;;;;;;;4.85;3.72;;;;;;;22.82;57.14;95816.56;10341649;28;96811;-66
2022/08/27 08:40:45;;;;;;;4.57;3.70;;;;;;;22.91;56.03;95809.84;10340563;28;97803;-65
2022/08/27 08:45:49;;;;;;;3.95;3.40;;;;;;;23.12;55.71;95804.91;10340460;28;98034;-65
2022/08/27 08:51:01;;;;;;;3.90;3.38;;;;;;;23.21;55.97;95803.47;10349373;28;98515;-66
2022/08/27 08:56:09;;;;;;;4.78;3.42;;;;;;;23.31;55.82;95803.69;10331102;28;97017;-66
2022/08/27 09:01:14;;;;;;;4.28;3.88;;;;;;;23.30;55.42;95796.72;10324750;28;96926;-65
2022/08/27 09:06:26;;;;;;;4.07;3.65;;;;;;;22.91;55.65;95793.84;10335756;28;96938;-66
2022/08/27 09:11:41;;;;;;;3.88;3.50;;;;;;;22.93;55.78;95797.09;10327877;28;96985;-66
2022/08/27 09:16:43;;;;;;;4.07;3.40;;;;;;;22.94;56.21;95792.56;10330375;28;96819;-65
2022/08/27 09:21:52;;;;;;;;;;;;;;;22.90;56.04;95791.44;10330397;28;96698;-65
2022/08/27 09:26:55;;;;;;;4.15;3.75;;;;;;;22.91;55.67;95785.88;10334741;28;96722;-65
2022/08/27 09:32:00;;;;;;;4.38;3.50;;;;;;;22.92;55.74;95795.47;10334193;28;96893;-66
2022/08/27 09:37:10;;;;;;;3.58;3.28;;;;;;;23.16;54.72;95790.06;10334604;28;96735;-66
2022/08/27 09:42:25;;;;;;;3.95;3.55;;;;;;;23.31;54.75;95792.22;10336908;28;96804;-66
2022/08/27 09:47:28;;;;;;;3.55;3.22;;;;;;;23.42;54.41;95787.88;10333701;28;97800;-66
2022/08/27 09:52:34;;;;;;;4.10;3.72;;;;;;;23.45;54.53;95776.75;10334383;28;96727;-65
2022/08/27 09:57:41;;;;;;;4.97;3.42;;;;;;;23.42;54.44;95782.56;10334423;28;96759;-66
2022/08/27 10:02:52;;;;;;;4.32;3.63;;;;;;;23.40;54.04;95779.31;10332163;28;96836;-66
2022/08/27 10:08:01;;;;;;;3.75;3.25;;;;;;;23.49;54.30;95778.69;10331466;28;96744;-66
2022/08/27 10:13:09;;;;;;;3.58;3.28;;;;;;;23.55;53.92;95777.72;10330934;28;97050;-65
2022/08/27 10:18:21;;;;;;;3.65;3.30;;;;;;;23.69;53.58;95772.06;10332158;28;97037;-66
2022/08/27 10:23:35;;;;;;;3.65;3.33;;;;;;;23.81;53.56;95775.47;10332039;28;97576;-66
2022/08/27 10:28:53;;;;;;;3.60;3.30;;;;;;;23.95;53.03;95781.31;10329719;28;96874;-66
2022/08/27 10:34:11;;;;;;;4.15;3.20;;;;;;;24.16;52.44;95766.44;10329556;28;96861;-66
2022/08/27 10:39:23;;;;;;;3.25;2.95;;;;;;;24.34;51.99;95778.69;10327739;28;97797;-66
2022/08/27 10:44:42;;;;;;;6.95;3.08;;;;;;;24.44;51.64;95778.81;10327664;28;96908;-67
2022/08/27 10:49:52;;;;;;;4.45;3.10;;;;;;;24.64;51.20;95766.78;10329822;28;97218;-65
2022/08/27 10:55:00;;;;;;;3.10;2.80;;;;;;;24.38;50.71;95758.44;10330154;28;96957;-67
2022/08/27 11:00:12;;;;;;;2.65;2.42;;;;;;;24.46;50.93;95758.00;10328239;28;98099;-65
2022/08/27 11:05:20;;;;;;;3.28;2.40;;;;;;;24.58;50.31;95749.09;10325209;28;96911;-67
2022/08/27 11:10:29;;;;;;;2.95;2.20;;;;;;;24.70;49.86;95744.44;10327813;28;97056;-65
2022/08/27 11:15:36;;;;;;;2.70;2.50;;;;;;;24.85;48.42;95738.47;10323684;28;98958;-66
2022/08/27 11:20:45;;;;;;;2.50;2.30;;;;;;;25.13;48.37;95734.78;10326841;28;98057;-65
2022/08/27 11:25:54;;;;;;;2.58;2.15;;;;;;;25.32;47.63;95732.53;10327131;28;97199;-66
2022/08/27 11:31:07;;;;;;;2.58;2.38;;;;;;;25.50;47.23;95727.88;10324494;28;98506;-65
2022/08/27 11:36:52;;;;;;;2.35;2.15;;;;;;;25.62;46.01;95712.50;10329061;28;97735;-64
2022/08/27 11:42:07;;;;;;;6.25;4.72;;;;;;;25.84;46.02;95723.06;10320790;28;97507;-66
2022/08/27 11:47:13;;;;;;;4.28;3.63;;;;;;;26.14;45.58;95716.31;10328756;28;96991;-67
2022/08/27 11:52:27;;;;;;;2.58;2.17;;;;;;;26.27;45.66;95713.19;10324247;28;96799;-66
2022/08/27 11:57:35;;;;;;;3.42;2.22;;;;;;;26.52;44.78;95703.69;10323574;28;97131;-65
2022/08/27 12:02:38;;;;;;;4.30;2.85;;;;;;;26.58;45.09;95707.97;10317578;28;97351;-65
2022/08/27 12:07:44;;;;;;;2.97;2.73;;;;;;;26.72;44.47;95710.97;10325313;28;97943;-66
2022/08/27 12:13:01;;;;;;;1.90;1.70;;;;;;;26.77;43.96;95694.13;10323241;28;97352;-65
2022/08/27 12:18:24;;;;;;;2.33;1.80;;;;;;;26.88;43.55;95701.09;10319195;28;98304;-65
2022/08/27 12:23:43;;;;;;;2.67;2.10;;;;;;;27.07;43.12;95699.56;10317467;28;97194;-65
2022/08/27 12:28:47;;;;;;;2.22;2.03;;;;;;;27.32;42.85;95695.31;10323771;28;97498;-65
2022/08/27 12:33:53;;;;;;;2.60;2.15;;;;;;;27.68;42.03;95687.28;10319101;28;99137;-68
2022/08/27 12:38:58;;;;;;;2.95;1.92;;;;;;;27.84;42.18;95696.94;10322743;28;97673;-66
2022/08/27 12:44:09;;;;;;;2.10;1.90;;;;;;;28.01;41.18;95685.91;10321730;28;96849;-65
2022/08/27 12:49:15;;;;;;;2.15;1.95;;;;;;;28.23;41.13;95677.50;10331310;28;96815;-65
2022/08/27 12:54:45;;;;;;;2.03;1.88;;;;;;;28.21;41.39;95695.75;10333994;28;96873;-65
2022/08/27 13:00:07;;;;;;;2.00;1.80;;;;;;;28.04;41.05;95679.16;10328603;28;96760;-67
2022/08/27 13:05:12;;;;;;;2.10;1.77;;;;;;;27.82;41.05;95677.59;10327603;28;98696;-65
2022/08/27 13:10:17;;;;;;;3.00;1.92;;;;;;;27.42;42.23;95678.41;10312626;28;97096;-66
2022/08/27 13:15:22;;;;;;;2.25;2.05;;;;;;;26.85;43.01;95680.19;10326065;28;97965;-66
2022/08/27 13:20:26;;;;;;;2.35;1.80;;;;;;;26.46;43.67;95678.72;10317108;28;97725;-65
2022/08/27 13:25:33;;;;;;;2.22;2.03;;;;;;;26.42;43.98;95687.56;10317901;28;98685;-65
2022/08/27 13:30:40;;;;;;;2.80;2.15;;;;;;;26.10;44.43;95683.91;10330608;28;98711;-68
2022/08/27 13:35:45;;;;;;;3.08;2.20;;;;;;;25.76;47.43;95675.41;10318657;28;96956;-66
2022/08/27 13:40:55;;;;;;;4.10;2.63;;;;;;;25.41;49.96;95676.75;10321789;28;98680;-66
2022/08/27 13:46:01;;;;;;;5.45;2.78;;;;;;;24.95;52.55;95687.00;10313498;28;99185;-65
2022/08/27 13:51:05;;;;;;;5.90;3.28;;;;;;;23.99;57.13;95689.03;10315283;28;98752;-66
2022/08/27 13:56:09;;;;;;;4.30;2.92;;;;;;;23.22;59.58;95687.84;10319185;28;98759;-66
2022/08/27 14:01:15;;;;;;;3.50;2.90;;;;;;;23.13;61.36;95691.94;10319784;28;98812;-66
2022/08/27 14:06:27;;;;;;;6.10;4.15;;;;;;;23.40;65.22;95678.03;10317355;28;99730;-66
2022/08/27 14:11:38;;;;;;;3.40;3.10;;;;;;;23.89;65.66;95664.88;10315640;28;97602;-67
2022/08/27 14:16:42;;;;;;;3.45;2.78;;;;;;;24.05;62.74;95669.38;10319306;28;98663;-67
2022/08/27 14:21:45;;;;;;;2.75;2.40;;;;;;;24.38;61.03;95673.00;10317011;28;96934;-65
2022/08/27 14:26:49;;;;;;;2.72;2.35;;;;;;;25.04;60.26;95670.28;10319184;28;98511;-65
2022/08/27 14:31:54;;;;;;;4.13;2.50;;;;;;;25.99;58.41;95658.94;10329483;28;97018;-67
2022/08/27 14:36:57;;;;;;;2.30;2.10;;;;;;;26.80;52.38;95648.84;10327415;28;99007;-67
2022/08/27 14:41:59;;;;;;;2.47;2.13;;;;;;;27.52;48.80;95662.31;10325084;28;97290;-65
2022/08/27 14:47:05;;;;;;;2.57;2.10;;;;;;;27.77;47.69;95661.50;10326655;28;97453;-65
2022/08/27 14:52:13;;;;;;;2.05;1.85;;;;;;;28.01;44.00;95682.38;10325853;28;98740;-65
2022/08/27 14:57:16;;;;;;;1.70;1.60;;;;;;;28.12;42.47;95681.28;10327449;28;96962;-66
2022/08/27 15:02:22;;;;;;;1.80;1.70;;;;;;;28.47;41.87;95682.28;10336438;28;98516;-65
2022/08/27 15:07:24;;;;;;;3.15;1.83;;;;;;;28.66;41.28;95681.66;10314312;28;99074;-66
2022/08/27 15:12:31;;;;;;;1.90;1.70;;;;;;;29.36;39.66;95693.06;10330472;28;97118;-67
2022/08/27 15:17:35;;;;;;;4.97;1.50;;;;;;;29.67;38.79;95683.97;10328413;28;98446;-65
2022/08/27 15:22:41;;;;;;;3.25;2.03;;;;;;;29.35;39.69;95675.34;10326697;28;98849;-68
2022/08/27 15:27:45;;;;;;;2.97;1.90;;;;;;;28.94;40.23;95685.56;10328513;28;98081;-65
2022/08/27 15:32:50;;;;;;;2.35;1.75;;;;;;;29.13;39.85;95677.66;10327852;28;97640;-67
2022/08/27 15:37:54;;;;;;;2.80;1.90;;;;;;;29.51;38.36;95677.91;10327183;28;97291;-68
2022/08/27 15:43:00;;;;;;;2.30;1.60;;;;;;;29.50;37.90;95687.03;10325517;28;96863;-66
2022/08/27 15:48:05;;;;;;;2.25;1.80;;;;;;;29.91;37.30;95692.91;10327183;28;98167;-66
2022/08/27 15:53:09;;;;;;;1.83;1.70;;;;;;;30.17;36.67;95686.50;10334194;28;96886;-66
2022/08/27 15:58:12;;;;;;;2.42;2.08;;;;;;;30.29;37.13;95687.69;10321191;28;97975;-66
2022/08/27 16:03:16;;;;;;;;;;;;;;;30.42;37.68;95691.56;10330327;28;96895;-66
2022/08/27 16:08:19;;;;;;;4.38;3.88;;;;;;;30.70;36.10;95691.75;10326345;28;96955;-66
2022/08/27 16:13:23;;;;;;;3.17;2.58;;;;;;;30.58;36.92;95688.69;10326225;28;97601;-65
2022/08/27 16:18:30;;;;;;;2.60;2.22;;;;;;;30.45;37.12;95688.28;10328615;28;98510;-68
2022/08/27 16:23:35;;;;;;;4.30;2.45;;;;;;;30.11;37.97;95681.13;10336201;28;97817;-68
2022/08/27 16:28:37;;;;;;;2.88;2.40;;;;;;;30.10;38.30;95673.31;10328059;28;96846;-68
2022/08/27 16:33:43;;;;;;;3.53;2.65;;;;;;;30.25;38.26;95685.84;10330273;28;98130;-68
2022/08/27 16:38:45;;;;;;;4.43;3.45;;;;;;;29.70;39.45;95692.28;10325861;28;96856;-68
2022/08/27 16:43:48;;;;;;;3.70;2.60;;;;;;;28.83;40.99;95700.94;10342849;28;98429;-68
2022/08/27 16:54:15;;;;;;;3.08;2.70;;;;;;;27.73;41.86;95684.56;10322722;28;97213;-65
2022/08/27 16:59:18;;;;;;;3.25;2.90;;;;;;;27.29;42.01;95690.47;10333832;28;97083;-67
2022/08/27 17:04:22;;;;;;;3.10;2.90;;;;;;;27.01;42.54;95687.22;10314429;28;96742;-65
2022/08/27 17:09:34;;;;;;;3.17;2.87;;;;;;;27.19;42.41;95695.81;10325999;28;97065;-64
2022/08/27 17:14:45;;;;;;;3.92;3.25;;;;;;;27.05;42.61;95687.50;10334691;28;96795;-65
2022/08/27 17:19:49;;;;;;;3.42;3.00;;;;;;;26.78;43.17;95685.00;10329950;28;99398;-65
2022/08/27 17:24:53;;;;;;;3.40;3.10;;;;;;;26.51;44.04;95689.47;10318585;28;96914;-65
2022/08/27 17:29:58;;;;;;;3.78;3.47;;;;;;;26.10;45.23;95689.28;10320534;28;98926;-65
2022/08/27 17:35:03;;;;;;;4.50;3.30;;;;;;;25.75;45.62;95684.50;10324224;28;98816;-65
2022/08/27 17:40:13;;;;;;;3.35;3.05;;;;;;;25.58;46.22;95701.50;10319162;28;98273;-64
2022/08/27 17:45:17;;;;;;;3.60;3.30;;;;;;;25.56;45.90;95692.13;10316812;28;98667;-64
2022/08/27 17:50:21;;;;;;;3.60;3.30;;;;;;;25.46;46.51;95698.19;10302964;28;97276;-64
2022/08/27 17:55:29;;;;;;;4.13;3.45;;;;;;;25.20;47.06;95692.59;10307854;28;97264;-64
2022/08/27 18:00:35;;;;;;;4.50;3.67;;;;;;;25.01;47.20;95692.16;10309449;28;97964;-64
2022/08/27 18:05:39;;;;;;;3.83;3.50;;;;;;;24.93;47.80;95695.28;10325172;28;96833;-65
2022/08/27 18:10:43;;;;;;;4.70;3.72;;;;;;;24.82;48.57;95699.72;10305710;28;97689;-65
2022/08/27 18:15:50;;;;;;;4.95;3.72;;;;;;;24.72;48.61;95709.47;10319253;28;96937;-63
2022/08/27 18:20:55;;;;;;;5.53;4.28;;;;;;;24.53;49.21;95707.09;10328589;28;98417;-65
2022/08/27 18:25:58;;;;;;;11.30;10.10;;;;;;;24.44;49.43;95708.59;10322127;28;97476;-62
2022/08/27 18:31:03;;;;;;;4.87;4.37;;;;;;;24.29;50.30;95711.88;10325181;28;97229;-65
2022/08/27 18:36:10;;;;;;;5.53;4.40;;;;;;;24.16;49.97;95713.06;10326595;28;97103;-64
2022/08/27 18:41:13;;;;;;;4.72;4.28;;;;;;;24.03;50.80;95714.16;10323597;28;98021;-65
2022/08/27 18:46:17;;;;;;;5.30;4.80;;;;;;;23.87;50.36;95721.16;10325060;28;98553;-70
2022/08/27 18:51:22;;;;;;;5.40;4.90;;;;;;;23.57;51.34;95718.84;10318169;28;96815;-68
2022/08/27 18:56:25;;;;;;;5.40;4.82;;;;;;;23.38;51.71;95724.38;10325109;28;98509;-69
2022/08/27 19:01:29;;;;;;;5.50;4.32;;;;;;;23.32;51.93;95732.53;10321340;28;98870;-72
2022/08/27 19:06:33;;;;;;;5.35;4.82;;;;;;;23.13;52.92;95731.91;10323719;28;98596;-72
2022/08/27 19:11:36;;;;;;;;;;;;;;;22.96;52.28;95732.69;10325810;28;98567;-73
2022/08/27 19:16:43;;;;;;;5.53;4.90;;;;;;;22.78;53.54;95728.34;10324599;28;98408;-74
2022/08/27 19:21:47;;;;;;;5.30;4.80;;;;;;;22.56;53.93;95730.88;10327229;28;98326;-69
2022/08/27 19:26:53;;;;;;;5.32;4.82;;;;;;;22.36;54.35;95733.88;10325441;28;97173;-66
2022/08/27 19:31:56;;;;;;;5.65;5.03;;;;;;;22.19;54.57;95740.97;10325191;28;98057;-67
2022/08/27 19:37:01;;;;;;;5.65;5.15;;;;;;;22.03;54.87;95729.19;10323083;28;98909;-70
2022/08/27 19:42:05;;;;;;;8.95;5.10;;;;;;;21.81;55.23;95727.09;10325611;28;97579;-70
2022/08/27 19:47:10;;;;;;;7.00;4.87;;;;;;;21.74;55.48;95737.03;10322670;28;98299;-69
2022/08/27 19:52:14;;;;;;;6.13;5.53;;;;;;;21.66;55.26;95729.41;10332404;28;98611;-66
2022/08/27 19:57:17;;;;;;;6.93;5.28;;;;;;;21.57;55.04;95725.44;10331932;28;98096;-67
2022/08/27 20:02:19;;;;;;;6.43;5.25;;;;;;;21.55;54.99;95728.31;10327041;28;97980;-67
2022/08/27 20:07:24;;;;;;;6.43;5.25;;;;;;;21.53;54.79;95732.25;10343690;28;98894;-68
2022/08/27 20:12:27;;;;;;;6.07;5.03;;;;;;;21.49;54.76;95732.72;10342114;28;97267;-68
2022/08/27 20:17:29;;;;;;;6.22;5.40;;;;;;;21.45;54.65;95739.53;10328754;28;98854;-68
2022/08/27 20:22:34;;;;;;;5.18;4.68;;;;;;;21.49;54.36;95740.69;10329822;28;97028;-67
2022/08/27 20:27:37;;;;;;;6.25;5.10;;;;;;;21.50;54.15;95742.31;10329225;28;96921;-65
2022/08/27 20:32:40;;;;;;;5.97;5.22;;;;;;;21.46;54.40;95750.97;10330708;28;96766;-61
2022/08/27 20:37:45;;;;;;;6.20;5.25;;;;;;;21.42;54.38;95750.59;10328775;28;96802;-70
2022/08/27 20:42:47;;;;;;;6.03;5.43;;;;;;;21.37;54.70;95761.09;10334094;28;97005;-67
2022/08/27 20:47:52;;;;;;;5.93;5.32;;;;;;;21.28;54.80;95765.13;10327885;28;97269;-69
2022/08/27 20:52:56;;;;;;;;;;;;;;;21.20;54.60;95763.59;10333088;28;96788;-66
2022/08/27 21:03:19;;;;;;;5.90;5.18;;;;;;;21.13;56.42;95776.97;10332439;28;96869;-60
2022/08/27 21:08:23;;;;;;;5.57;4.97;;;;;;;21.16;56.26;95793.50;10333856;28;97068;-69
2022/08/27 21:13:28;;;;;;;5.80;5.20;;;;;;;21.17;56.62;95787.13;10336601;28;97384;-66
2022/08/27 21:18:31;;;;;;;6.45;5.60;;;;;;;21.19;56.91;95799.19;10332381;28;97181;-63
2022/08/27 21:23:37;;;;;;;6.18;5.18;;;;;;;21.17;57.15;95790.59;10322897;28;97746;-63
2022/08/27 21:28:43;;;;;;;8.30;5.47;;;;;;;21.16;57.33;95790.84;10315199;28;97765;-65
2022/08/27 21:33:45;;;;;;;12.00;10.80;;;;;;;21.15;57.47;95797.19;10316160;28;97284;-60
2022/08/27 21:38:50;;;;;;;7.60;6.53;;;;;;;21.12;57.65;95787.84;10345584;28;96943;-62
2022/08/27 21:43:53;;;;;;;8.63;5.90;;;;;;;21.07;57.60;95801.78;10330760;28;98377;-60
2022/08/27 21:48:56;;;;;;;7.40;5.78;;;;;;;21.04;57.57;95802.22;10333044;28;97093;-61
2022/08/27 21:54:02;;;;;;;7.28;5.90;;;;;;;20.93;57.68;95801.13;10328074;28;97817;-62
2022/08/27 21:59:07;;;;;;;7.47;6.18;;;;;;;20.83;58.12;95800.84;10329817;28;98218;-63
2022/08/27 22:04:10;;;;;;;8.23;6.30;;;;;;;20.78;58.47;95802.56;10319609;28;97953;-64
2022/08/27 22:09:14;;;;;;;7.65;5.97;;;;;;;20.69;58.57;95797.50;10324271;28;99055;-69
2022/08/27 22:14:17;;;;;;;6.47;5.85;;;;;;;20.64;58.68;95792.06;10323449;28;97576;-68
2022/08/27 22:19:21;;;;;;;6.50;5.80;;;;;;;20.55;59.10;95790.75;10324272;28;98512;-65
2022/08/27 22:24:25;;;;;;;6.28;5.68;;;;;;;20.37;58.95;95786.22;10328146;28;98641;-65
2022/08/27 22:29:28;;;;;;;6.00;5.40;;;;;;;20.13;59.23;95786.06;10324569;28;97814;-66
2022/08/27 22:34:32;;;;;;;11.77;10.27;;;;;;;19.97;60.05;95787.44;10325656;28;98703;-71
2022/08/27 22:39:36;;;;;;;8.90;7.13;;;;;;;19.87;60.50;95795.09;10328275;28;98265;-68
2022/08/27 22:44:40;;;;;;;8.35;6.18;;;;;;;19.77;60.96;95797.38;10330481;28;97159;-69
2022/08/27 22:49:43;;;;;;;7.72;6.55;;;;;;;19.59;61.05;95804.22;10333343;28;98622;-58
2022/08/27 22:54:48;;;;;;;19.97;17.70;;;;;;;19.48;61.97;95799.63;10323088;28;97208;-59
2022/08/27 22:59:57;;;;;;;6.93;6.22;;;;;;;19.31;62.11;95798.50;10326733;28;99082;-58
2022/08/27 23:05:00;;;;;;;8.37;6.63;;;;;;;19.26;63.00;95812.38;10324756;28;97652;-60
2022/08/27 23:10:11;;;;;;;7.75;6.95;;;;;;;18.98;63.62;95815.38;10319323;28;96811;-61
2022/08/27 23:15:17;;;;;;;7.78;6.97;;;;;;;18.79;63.95;95817.84;10334069;28;96860;-60
2022/08/27 23:20:20;;;;;;;9.18;8.02;;;;;;;18.73;64.58;95812.63;10326084;28;97431;-59
2022/08/27 23:30:46;;;;;;;8.55;7.47;;;;;;;18.42;65.55;95822.88;10333276;28;97927;-61
2022/08/27 23:35:50;;;;;;;10.38;7.47;;;;;;;18.37;65.87;95822.66;10329856;28;97724;-62
2022/08/27 23:40:55;;;;;;;7.65;6.70;;;;;;;18.38;65.51;95824.31;10335808;28;96878;-68
2022/08/27 23:45:57;;;;;;;9.10;6.88;;;;;;;18.41;65.30;95815.97;10322911;28;97665;-68
2022/08/27 23:51:00;;;;;;;12.50;6.47;;;;;;;18.44;64.84;95815.53;10325222;28;99254;-69
2022/08/27 23:56:05;;;;;;;8.30;6.68;;;;;;;18.44;64.47;95820.81;10310508;28;98379;-57
